VYA605 BGGH-ENAT
Flight info
| Callsign | VYA605 |
|---|---|
| Flight time | N/A |
| Altitude | 39000 |
| Route | 67N041W 69N029W 71N014W/N0465F390 71N001E DCT ELRES DCT UDSAM |
| Aircraft | CL60/M-SADE3FGHIJ3J4J7P2RWXY/HB1D1 |
Departure
| Time | 2026-04-26 13:11 |
|---|---|
| Airport | Nuuk International Airport (BGGH) |
Arrival
| Time | N/A |
|---|---|
| Airport | Alta Airport (ENAT) |
| Time | Latitude | Longitude | Altitude | Speed | Heading |
|---|---|---|---|---|---|
| 2026-04-26 12:54 | 64.19137 | -51.67446 | 279 ft | 0 kts | 183° |
| 2026-04-26 13:08 | 64.19123 | -51.67458 | 279 ft | 11 kts | 211° |
| 2026-04-26 13:08 | 64.19080 | -51.67674 | 280 ft | 16 kts | 282° |
| 2026-04-26 13:08 | 64.19093 | -51.67882 | 283 ft | 11 kts | 248° |
| 2026-04-26 13:09 | 64.19026 | -51.67969 | 283 ft | 14 kts | 199° |
| 2026-04-26 13:09 | 64.18877 | -51.68092 | 280 ft | 26 kts | 198° |
| 2026-04-26 13:09 | 64.18687 | -51.68233 | 274 ft | 30 kts | 199° |
| 2026-04-26 13:09 | 64.18476 | -51.68386 | 272 ft | 32 kts | 196° |
| 2026-04-26 13:10 | 64.18262 | -51.68538 | 272 ft | 19 kts | 196° |
| 2026-04-26 13:10 | 64.18188 | -51.68573 | 272 ft | 4 kts | 272° |
| 2026-04-26 13:10 | 64.18205 | -51.68599 | 272 ft | 0 kts | 20° |
| 2026-04-26 13:10 | 64.18216 | -51.68590 | 272 ft | 15 kts | 14° |
| 2026-04-26 13:11 | 64.18619 | -51.68284 | 273 ft | 103 kts | 17° |
| 2026-04-26 13:11 | 64.19460 | -51.67653 | 587 ft | 142 kts | 12° |
| 2026-04-26 13:11 | 64.20428 | -51.66946 | 1406 ft | 153 kts | 9° |
| 2026-04-26 13:11 | 64.21371 | -51.67303 | 2502 ft | 148 kts | 324° |
| 2026-04-26 13:12 | 64.21765 | -51.69528 | 3384 ft | 174 kts | 276° |
| 2026-04-26 13:12 | 64.21538 | -51.72725 | 3729 ft | 231 kts | 257° |
| 2026-04-26 13:12 | 64.20704 | -51.76111 | 4688 ft | 261 kts | 231° |
| 2026-04-26 13:12 | 64.19184 | -51.78348 | 5933 ft | 276 kts | 198° |
| 2026-04-26 13:13 | 64.17257 | -51.78446 | 7230 ft | 285 kts | 170° |
| 2026-04-26 13:13 | 64.15340 | -51.77502 | 8445 ft | 292 kts | 169° |
| 2026-04-26 13:13 | 64.13342 | -51.76462 | 9745 ft | 297 kts | 164° |
| 2026-04-26 13:13 | 64.11460 | -51.74422 | 10659 ft | 315 kts | 150° |
| 2026-04-26 13:14 | 64.09467 | -51.71723 | 11018 ft | 348 kts | 150° |
| 2026-04-26 13:14 | 64.07452 | -51.68468 | 11789 ft | 364 kts | 136° |
| 2026-04-26 13:14 | 64.05899 | -51.63844 | 12677 ft | 373 kts | 116° |
| 2026-04-26 13:14 | 64.05106 | -51.58267 | 13630 ft | 375 kts | 95° |
| 2026-04-26 13:15 | 64.05197 | -51.52374 | 14512 ft | 377 kts | 74° |
| 2026-04-26 13:15 | 64.05895 | -51.46551 | 15299 ft | 384 kts | 70° |
| 2026-04-26 13:15 | 64.06631 | -51.40674 | 16207 ft | 389 kts | 70° |
| 2026-04-26 13:15 | 64.07373 | -51.34682 | 17004 ft | 396 kts | 71° |
| 2026-04-26 13:16 | 64.08122 | -51.28617 | 17772 ft | 402 kts | 72° |
| 2026-04-26 13:16 | 64.08884 | -51.22416 | 18581 ft | 406 kts | 72° |
| 2026-04-26 13:16 | 64.09822 | -51.16293 | 19282 ft | 408 kts | 60° |
| 2026-04-26 13:16 | 64.11244 | -51.10768 | 19899 ft | 412 kts | 55° |
| 2026-04-26 13:17 | 64.14277 | -50.99349 | 21181 ft | 421 kts | 55° |
| 2026-04-26 13:17 | 64.15781 | -50.93648 | 21780 ft | 425 kts | 54° |
| 2026-04-26 13:18 | 64.18862 | -50.81936 | 22854 ft | 434 kts | 54° |
| 2026-04-26 13:18 | 64.20437 | -50.75922 | 23342 ft | 439 kts | 54° |
| 2026-04-26 13:18 | 64.23576 | -50.63882 | 24284 ft | 445 kts | 54° |
| 2026-04-26 13:19 | 64.25182 | -50.57700 | 24716 ft | 449 kts | 54° |
| 2026-04-26 13:19 | 64.26791 | -50.51483 | 25153 ft | 452 kts | 54° |
| 2026-04-26 13:19 | 64.28392 | -50.45283 | 25557 ft | 455 kts | 54° |
| 2026-04-26 13:19 | 64.30023 | -50.38950 | 25952 ft | 459 kts | 54° |
| 2026-04-26 13:20 | 64.31656 | -50.32590 | 26320 ft | 463 kts | 55° |
| 2026-04-26 13:20 | 64.33301 | -50.26166 | 26647 ft | 467 kts | 56° |
| 2026-04-26 13:20 | 64.34956 | -50.19682 | 26970 ft | 470 kts | 56° |
| 2026-04-26 13:20 | 64.36602 | -50.13209 | 27302 ft | 473 kts | 56° |
| 2026-04-26 13:21 | 64.38288 | -50.06622 | 27621 ft | 475 kts | 54° |
| 2026-04-26 13:21 | 64.39565 | -50.02500 | 27819 ft | 473 kts | 47° |
| 2026-04-26 13:21 | 64.42351 | -49.94575 | 28234 ft | 475 kts | 46° |
| 2026-04-26 13:21 | 64.44426 | -49.88650 | 28543 ft | 477 kts | 46° |
| 2026-04-26 13:22 | 64.46531 | -49.82620 | 28816 ft | 481 kts | 46° |
| 2026-04-26 13:22 | 64.48640 | -49.76561 | 29058 ft | 484 kts | 46° |
| 2026-04-26 13:22 | 64.50741 | -49.70505 | 29289 ft | 487 kts | 47° |
| 2026-04-26 13:22 | 64.52853 | -49.64396 | 29525 ft | 489 kts | 47° |
| 2026-04-26 13:23 | 64.55015 | -49.58128 | 29767 ft | 491 kts | 47° |
| 2026-04-26 13:23 | 64.57133 | -49.51969 | 29981 ft | 493 kts | 47° |
| 2026-04-26 13:23 | 64.59293 | -49.45666 | 30211 ft | 494 kts | 47° |
| 2026-04-26 13:23 | 64.61430 | -49.39414 | 30382 ft | 496 kts | 47° |
| 2026-04-26 13:24 | 64.63588 | -49.33083 | 30560 ft | 498 kts | 48° |
| 2026-04-26 13:24 | 64.65759 | -49.26693 | 30706 ft | 501 kts | 48° |
| 2026-04-26 13:24 | 64.67931 | -49.20282 | 30831 ft | 503 kts | 49° |
| 2026-04-26 13:24 | 64.70116 | -49.13815 | 30969 ft | 504 kts | 49° |
| 2026-04-26 13:25 | 64.72297 | -49.07341 | 31097 ft | 506 kts | 49° |
| 2026-04-26 13:25 | 64.74461 | -49.00894 | 31246 ft | 507 kts | 49° |
| 2026-04-26 13:25 | 64.76662 | -48.94322 | 31369 ft | 508 kts | 49° |
| 2026-04-26 13:25 | 64.78849 | -48.87769 | 31477 ft | 509 kts | 49° |
| 2026-04-26 13:26 | 64.81040 | -48.81187 | 31609 ft | 510 kts | 49° |
| 2026-04-26 13:26 | 64.83237 | -48.74566 | 31763 ft | 510 kts | 49° |
| 2026-04-26 13:26 | 64.85409 | -48.68002 | 31921 ft | 510 kts | 49° |
| 2026-04-26 13:26 | 64.87573 | -48.61440 | 32083 ft | 510 kts | 49° |
| 2026-04-26 13:27 | 64.89754 | -48.54809 | 32209 ft | 510 kts | 50° |
| 2026-04-26 13:27 | 64.91924 | -48.48193 | 32353 ft | 510 kts | 50° |
| 2026-04-26 13:27 | 64.94093 | -48.41559 | 32483 ft | 511 kts | 50° |
| 2026-04-26 13:27 | 64.96287 | -48.34827 | 32619 ft | 511 kts | 51° |
| 2026-04-26 13:28 | 64.98453 | -48.28164 | 32745 ft | 511 kts | 51° |
| 2026-04-26 13:28 | 65.00605 | -48.21520 | 32893 ft | 511 kts | 51° |
| 2026-04-26 13:28 | 65.02782 | -48.14780 | 33029 ft | 510 kts | 51° |
| 2026-04-26 13:28 | 65.04931 | -48.08111 | 33180 ft | 510 kts | 51° |
| 2026-04-26 13:29 | 65.07072 | -48.01442 | 33329 ft | 510 kts | 51° |
| 2026-04-26 13:29 | 65.08530 | -47.96891 | 33435 ft | 510 kts | 51° |
| 2026-04-26 13:29 | 65.11382 | -47.87960 | 33613 ft | 510 kts | 51° |
| 2026-04-26 13:29 | 65.13528 | -47.81215 | 33744 ft | 510 kts | 51° |
| 2026-04-26 13:30 | 65.15693 | -47.74394 | 33860 ft | 510 kts | 51° |
| 2026-04-26 13:30 | 65.17825 | -47.67654 | 33986 ft | 510 kts | 51° |
| 2026-04-26 13:30 | 65.19972 | -47.60844 | 34103 ft | 510 kts | 51° |
| 2026-04-26 13:30 | 65.22076 | -47.54152 | 34228 ft | 510 kts | 51° |
| 2026-04-26 13:31 | 65.24231 | -47.47276 | 34352 ft | 510 kts | 51° |
| 2026-04-26 13:31 | 65.26342 | -47.40521 | 34453 ft | 511 kts | 51° |
| 2026-04-26 13:31 | 65.28460 | -47.33722 | 34583 ft | 510 kts | 52° |
| 2026-04-26 13:31 | 65.30582 | -47.26891 | 34694 ft | 510 kts | 52° |
| 2026-04-26 13:32 | 65.32693 | -47.20072 | 34816 ft | 510 kts | 52° |
| 2026-04-26 13:32 | 65.34827 | -47.13158 | 34935 ft | 510 kts | 52° |
| 2026-04-26 13:32 | 65.36930 | -47.06324 | 35057 ft | 510 kts | 52° |
| 2026-04-26 13:32 | 65.39027 | -46.99491 | 35170 ft | 509 kts | 52° |
| 2026-04-26 13:33 | 65.41119 | -46.92652 | 35252 ft | 510 kts | 52° |
| 2026-04-26 13:33 | 65.43223 | -46.85751 | 35353 ft | 510 kts | 52° |
| 2026-04-26 13:33 | 65.45319 | -46.78856 | 35433 ft | 511 kts | 52° |
| 2026-04-26 13:34 | 65.49506 | -46.65016 | 35620 ft | 511 kts | 53° |
| 2026-04-26 13:34 | 65.53657 | -46.51212 | 35800 ft | 511 kts | 53° |
| 2026-04-26 13:35 | 65.57821 | -46.37275 | 35972 ft | 511 kts | 53° |
| 2026-04-26 13:35 | 65.61967 | -46.23316 | 36106 ft | 512 kts | 54° |
| 2026-04-26 13:36 | 65.66074 | -46.09397 | 36262 ft | 511 kts | 54° |
| 2026-04-26 13:36 | 65.70183 | -45.95385 | 36396 ft | 512 kts | 54° |
| 2026-04-26 13:37 | 65.74299 | -45.81262 | 36562 ft | 511 kts | 54° |
| 2026-04-26 13:37 | 65.78380 | -45.67169 | 36707 ft | 511 kts | 54° |
| 2026-04-26 13:38 | 65.82474 | -45.52937 | 36883 ft | 510 kts | 54° |
| 2026-04-26 13:38 | 65.86512 | -45.38815 | 37035 ft | 510 kts | 54° |
| 2026-04-26 13:39 | 65.90568 | -45.24538 | 37174 ft | 510 kts | 55° |
| 2026-04-26 13:39 | 65.94574 | -45.10347 | 37353 ft | 509 kts | 56° |
| 2026-04-26 13:40 | 65.98586 | -44.96044 | 37469 ft | 509 kts | 56° |
| 2026-04-26 13:40 | 66.02584 | -44.81697 | 37558 ft | 509 kts | 56° |
| 2026-04-26 13:41 | 66.06552 | -44.67364 | 37627 ft | 511 kts | 56° |
| 2026-04-26 13:41 | 66.10557 | -44.52807 | 37683 ft | 512 kts | 56° |
| 2026-04-26 13:42 | 66.14510 | -44.38340 | 37779 ft | 511 kts | 56° |
| 2026-04-26 13:42 | 66.18479 | -44.23724 | 37855 ft | 511 kts | 57° |
| 2026-04-26 13:43 | 66.22415 | -44.09130 | 37922 ft | 512 kts | 57° |
| 2026-04-26 13:43 | 66.26358 | -43.94414 | 37945 ft | 513 kts | 57° |
| 2026-04-26 13:44 | 66.30281 | -43.79676 | 37968 ft | 514 kts | 57° |
| 2026-04-26 13:44 | 66.34199 | -43.64854 | 37997 ft | 515 kts | 57° |
| 2026-04-26 13:45 | 66.38128 | -43.49895 | 38054 ft | 516 kts | 57° |
| 2026-04-26 13:45 | 66.42025 | -43.34954 | 38100 ft | 517 kts | 58° |
| 2026-04-26 13:46 | 66.45915 | -43.19940 | 38162 ft | 517 kts | 58° |
| 2026-04-26 13:46 | 66.49811 | -43.04799 | 38240 ft | 516 kts | 58° |
| 2026-04-26 13:47 | 66.53690 | -42.89617 | 38303 ft | 516 kts | 58° |
| 2026-04-26 13:47 | 66.57526 | -42.74501 | 38349 ft | 517 kts | 58° |
| 2026-04-26 13:48 | 66.61372 | -42.59245 | 38359 ft | 518 kts | 58° |
| 2026-04-26 13:48 | 66.65187 | -42.44001 | 38361 ft | 519 kts | 58° |
| 2026-04-26 13:49 | 66.69032 | -42.28531 | 38363 ft | 520 kts | 59° |
| 2026-04-26 13:49 | 66.72856 | -42.13036 | 38369 ft | 521 kts | 59° |
| 2026-04-26 13:50 | 66.76668 | -41.97481 | 38376 ft | 522 kts | 59° |
| 2026-04-26 13:50 | 66.80493 | -41.81760 | 38389 ft | 524 kts | 59° |
| 2026-04-26 13:51 | 66.84303 | -41.65986 | 38391 ft | 525 kts | 59° |
| 2026-04-26 13:51 | 66.88103 | -41.50141 | 38403 ft | 526 kts | 59° |
| 2026-04-26 13:52 | 66.91876 | -41.34297 | 38409 ft | 527 kts | 60° |
| 2026-04-26 13:52 | 66.95675 | -41.18221 | 38404 ft | 528 kts | 60° |
| 2026-04-26 13:53 | 66.99419 | -41.02261 | 38416 ft | 528 kts | 60° |
| 2026-04-26 13:53 | 67.03054 | -40.85994 | 38416 ft | 527 kts | 62° |
| 2026-04-26 13:54 | 67.06628 | -40.69616 | 38422 ft | 527 kts | 62° |
| 2026-04-26 13:54 | 67.10179 | -40.53231 | 38429 ft | 526 kts | 62° |
| 2026-04-26 13:55 | 67.14882 | -40.31340 | 38439 ft | 525 kts | 63° |
| 2026-04-26 13:56 | 67.20715 | -40.03879 | 38449 ft | 525 kts | 63° |
| 2026-04-26 13:56 | 67.24200 | -39.87307 | 38454 ft | 526 kts | 63° |
| 2026-04-26 13:57 | 67.27663 | -39.70710 | 38446 ft | 526 kts | 63° |
| 2026-04-26 13:57 | 67.31098 | -39.54115 | 38450 ft | 525 kts | 63° |
| 2026-04-26 13:58 | 67.34511 | -39.37504 | 38454 ft | 524 kts | 63° |
| 2026-04-26 13:58 | 67.37925 | -39.20752 | 38451 ft | 524 kts | 64° |
| 2026-04-26 13:59 | 67.41298 | -39.04069 | 38444 ft | 524 kts | 64° |
| 2026-04-26 13:59 | 67.44672 | -38.87249 | 38442 ft | 525 kts | 64° |
| 2026-04-26 14:00 | 67.51350 | -38.53557 | 38429 ft | 525 kts | 64° |
| 2026-04-26 14:01 | 67.54681 | -38.36548 | 38424 ft | 525 kts | 64° |
| 2026-04-26 14:01 | 67.57970 | -38.19610 | 38421 ft | 525 kts | 65° |
| 2026-04-26 14:02 | 67.61260 | -38.02532 | 38411 ft | 525 kts | 65° |
| 2026-04-26 14:02 | 67.64530 | -37.85417 | 38416 ft | 524 kts | 65° |
| 2026-04-26 14:03 | 67.67746 | -37.68448 | 38412 ft | 524 kts | 65° |
| 2026-04-26 14:03 | 67.70979 | -37.51242 | 38410 ft | 524 kts | 65° |
| 2026-04-26 14:04 | 67.74180 | -37.34067 | 38415 ft | 525 kts | 66° |
| 2026-04-26 14:04 | 67.77360 | -37.16860 | 38410 ft | 525 kts | 66° |
| 2026-04-26 14:05 | 67.80542 | -36.99492 | 38406 ft | 525 kts | 66° |
| 2026-04-26 14:05 | 67.83704 | -36.82088 | 38411 ft | 525 kts | 66° |
| 2026-04-26 14:06 | 67.86827 | -36.64756 | 38423 ft | 525 kts | 66° |
| 2026-04-26 14:06 | 67.89958 | -36.47223 | 38422 ft | 525 kts | 66° |
| 2026-04-26 14:07 | 67.93056 | -36.29728 | 38452 ft | 525 kts | 68° |
| 2026-04-26 14:07 | 67.96143 | -36.12142 | 38477 ft | 524 kts | 67° |
| 2026-04-26 14:08 | 67.99191 | -35.94619 | 38490 ft | 524 kts | 67° |
| 2026-04-26 14:08 | 68.02239 | -35.76948 | 38514 ft | 524 kts | 68° |
| 2026-04-26 14:09 | 68.05253 | -35.59316 | 38531 ft | 525 kts | 68° |
| 2026-04-26 14:09 | 68.08264 | -35.41543 | 38545 ft | 525 kts | 67° |
| 2026-04-26 14:10 | 68.11253 | -35.23745 | 38559 ft | 525 kts | 68° |
| 2026-04-26 14:10 | 68.14204 | -35.06009 | 38571 ft | 525 kts | 68° |
| 2026-04-26 14:11 | 68.18647 | -34.78998 | 38599 ft | 525 kts | 69° |
| 2026-04-26 14:11 | 68.21548 | -34.61165 | 38613 ft | 525 kts | 69° |
| 2026-04-26 14:12 | 68.24459 | -34.43099 | 38645 ft | 525 kts | 69° |
| 2026-04-26 14:12 | 68.27339 | -34.25056 | 38658 ft | 525 kts | 69° |
| 2026-04-26 14:13 | 68.31614 | -33.97971 | 38702 ft | 524 kts | 69° |
| 2026-04-26 14:14 | 68.34444 | -33.79820 | 38709 ft | 524 kts | 69° |
| 2026-04-26 14:14 | 68.37242 | -33.61708 | 38756 ft | 524 kts | 69° |
| 2026-04-26 14:15 | 68.40037 | -33.43444 | 38807 ft | 524 kts | 69° |
| 2026-04-26 14:15 | 68.42793 | -33.25261 | 38901 ft | 523 kts | 70° |
| 2026-04-26 14:16 | 68.45544 | -33.06931 | 38973 ft | 524 kts | 70° |
| 2026-04-26 14:16 | 68.48252 | -32.88709 | 39006 ft | 525 kts | 70° |
| 2026-04-26 14:17 | 68.50976 | -32.70205 | 39029 ft | 525 kts | 70° |
| 2026-04-26 14:17 | 68.53672 | -32.51702 | 39045 ft | 525 kts | 70° |
| 2026-04-26 14:18 | 68.56358 | -32.33087 | 38909 ft | 527 kts | 71° |
| 2026-04-26 14:18 | 68.59036 | -32.14340 | 38801 ft | 525 kts | 71° |
| 2026-04-26 14:19 | 68.61687 | -31.95599 | 38729 ft | 524 kts | 71° |
| 2026-04-26 14:19 | 68.64282 | -31.77053 | 38750 ft | 523 kts | 71° |
| 2026-04-26 14:20 | 68.66876 | -31.58325 | 38738 ft | 524 kts | 71° |
| 2026-04-26 14:20 | 68.69447 | -31.39572 | 38733 ft | 524 kts | 71° |
| 2026-04-26 14:21 | 68.72004 | -31.20724 | 38750 ft | 524 kts | 72° |
| 2026-04-26 14:21 | 68.74532 | -31.01893 | 38746 ft | 525 kts | 72° |
| 2026-04-26 14:22 | 68.77044 | -30.82978 | 38817 ft | 524 kts | 72° |
| 2026-04-26 14:22 | 68.79527 | -30.64086 | 38836 ft | 526 kts | 72° |
| 2026-04-26 14:23 | 68.82023 | -30.44887 | 38815 ft | 526 kts | 72° |
| 2026-04-26 14:23 | 68.84471 | -30.25850 | 38799 ft | 525 kts | 73° |
| 2026-04-26 14:24 | 68.86896 | -30.06789 | 38699 ft | 526 kts | 73° |
| 2026-04-26 14:24 | 68.89301 | -29.87675 | 38713 ft | 524 kts | 73° |
| 2026-04-26 14:25 | 68.91692 | -29.68447 | 38710 ft | 525 kts | 73° |
| 2026-04-26 14:25 | 68.94054 | -29.49253 | 38649 ft | 525 kts | 73° |
| 2026-04-26 14:26 | 68.96396 | -29.29992 | 38679 ft | 524 kts | 73° |
| 2026-04-26 14:26 | 68.98715 | -29.10706 | 38721 ft | 523 kts | 74° |
| 2026-04-26 14:27 | 69.01506 | -28.92039 | 38807 ft | 525 kts | 63° |
| 2026-04-26 14:27 | 69.04961 | -28.73982 | 38836 ft | 526 kts | 63° |
| 2026-04-26 14:28 | 69.08390 | -28.55869 | 38806 ft | 527 kts | 63° |
| 2026-04-26 14:28 | 69.11822 | -28.37579 | 38773 ft | 527 kts | 63° |
| 2026-04-26 14:29 | 69.15180 | -28.19525 | 38794 ft | 526 kts | 64° |
| 2026-04-26 14:29 | 69.18546 | -28.01268 | 38722 ft | 526 kts | 64° |
| 2026-04-26 14:30 | 69.21891 | -27.82962 | 38733 ft | 526 kts | 64° |
| 2026-04-26 14:30 | 69.25227 | -27.64542 | 38725 ft | 526 kts | 64° |
| 2026-04-26 14:31 | 69.28524 | -27.46174 | 38741 ft | 526 kts | 64° |
| 2026-04-26 14:31 | 69.31815 | -27.27675 | 38773 ft | 527 kts | 65° |
| 2026-04-26 14:32 | 69.35091 | -27.09083 | 38790 ft | 526 kts | 65° |
| 2026-04-26 14:32 | 69.38346 | -26.90447 | 38796 ft | 527 kts | 65° |
| 2026-04-26 14:33 | 69.41582 | -26.71750 | 38841 ft | 526 kts | 65° |
| 2026-04-26 14:33 | 69.44808 | -26.52936 | 38832 ft | 527 kts | 65° |
| 2026-04-26 14:34 | 69.47982 | -26.34248 | 38882 ft | 526 kts | 66° |
| 2026-04-26 14:34 | 69.51150 | -26.15426 | 38967 ft | 525 kts | 66° |
| 2026-04-26 14:35 | 69.54294 | -25.96570 | 39019 ft | 525 kts | 65° |
| 2026-04-26 14:35 | 69.57448 | -25.77469 | 38942 ft | 528 kts | 65° |
| 2026-04-26 14:36 | 69.60564 | -25.58421 | 39041 ft | 525 kts | 65° |
| 2026-04-26 14:36 | 69.63650 | -25.39371 | 39097 ft | 526 kts | 65° |
| 2026-04-26 14:37 | 69.66716 | -25.20263 | 39091 ft | 527 kts | 66° |
| 2026-04-26 14:37 | 69.69785 | -25.00947 | 38981 ft | 529 kts | 67° |
| 2026-04-26 14:38 | 69.72806 | -24.81748 | 39008 ft | 526 kts | 66° |
| 2026-04-26 14:38 | 69.75806 | -24.62491 | 39055 ft | 526 kts | 66° |
| 2026-04-26 14:39 | 69.78799 | -24.43090 | 39072 ft | 527 kts | 66° |
| 2026-04-26 14:39 | 69.81759 | -24.23714 | 39101 ft | 527 kts | 67° |
| 2026-04-26 14:40 | 69.84697 | -24.04284 | 39168 ft | 526 kts | 67° |
| 2026-04-26 14:40 | 69.87633 | -23.84674 | 39168 ft | 529 kts | 67° |
| 2026-04-26 14:41 | 69.90554 | -23.64953 | 39138 ft | 529 kts | 68° |
| 2026-04-26 14:41 | 69.93449 | -23.45217 | 39105 ft | 528 kts | 67° |
| 2026-04-26 14:42 | 69.96301 | -23.25563 | 39174 ft | 527 kts | 68° |
| 2026-04-26 14:42 | 69.99162 | -23.05646 | 39186 ft | 527 kts | 68° |
| 2026-04-26 14:43 | 70.01965 | -22.85927 | 39181 ft | 527 kts | 68° |
| 2026-04-26 14:43 | 70.04755 | -22.66089 | 39226 ft | 527 kts | 68° |
| 2026-04-26 14:44 | 70.07527 | -22.46170 | 39316 ft | 527 kts | 68° |
| 2026-04-26 14:44 | 70.10281 | -22.26163 | 39342 ft | 529 kts | 69° |
| 2026-04-26 14:45 | 70.13000 | -22.06205 | 39337 ft | 528 kts | 69° |
| 2026-04-26 14:45 | 70.15694 | -21.86210 | 39338 ft | 527 kts | 69° |
| 2026-04-26 14:46 | 70.18381 | -21.66049 | 39336 ft | 528 kts | 69° |
| 2026-04-26 14:46 | 70.21024 | -21.46001 | 39341 ft | 528 kts | 69° |
| 2026-04-26 14:47 | 70.23660 | -21.25770 | 39314 ft | 528 kts | 70° |
| 2026-04-26 14:47 | 70.26249 | -21.05689 | 39334 ft | 527 kts | 70° |
| 2026-04-26 14:48 | 70.28841 | -20.85355 | 39323 ft | 527 kts | 70° |
| 2026-04-26 14:48 | 70.31392 | -20.65107 | 39347 ft | 527 kts | 70° |
| 2026-04-26 14:49 | 70.33947 | -20.44598 | 39338 ft | 528 kts | 70° |
| 2026-04-26 14:49 | 70.36457 | -20.24211 | 39343 ft | 528 kts | 71° |
| 2026-04-26 14:50 | 70.38962 | -20.03630 | 39346 ft | 529 kts | 70° |
| 2026-04-26 14:50 | 70.41427 | -19.83133 | 39349 ft | 528 kts | 70° |
| 2026-04-26 14:51 | 70.43887 | -19.62429 | 39304 ft | 530 kts | 70° |
| 2026-04-26 14:51 | 70.46309 | -19.41806 | 39352 ft | 529 kts | 71° |
| 2026-04-26 14:52 | 70.48728 | -19.20958 | 39344 ft | 529 kts | 72° |
| 2026-04-26 14:52 | 70.51102 | -19.00238 | 39317 ft | 529 kts | 71° |
| 2026-04-26 14:53 | 70.53456 | -18.79448 | 39291 ft | 528 kts | 71° |
| 2026-04-26 14:53 | 70.55793 | -18.58542 | 39342 ft | 528 kts | 71° |
| 2026-04-26 14:54 | 70.58104 | -18.37608 | 39363 ft | 529 kts | 71° |
| 2026-04-26 14:54 | 70.60384 | -18.16692 | 39313 ft | 531 kts | 72° |
| 2026-04-26 14:55 | 70.62663 | -17.95516 | 39312 ft | 531 kts | 72° |
| 2026-04-26 14:55 | 70.64899 | -17.74454 | 39303 ft | 531 kts | 72° |
| 2026-04-26 14:56 | 70.67109 | -17.53377 | 39342 ft | 530 kts | 72° |
| 2026-04-26 14:56 | 70.69309 | -17.32105 | 39353 ft | 529 kts | 73° |
| 2026-04-26 14:57 | 70.71465 | -17.10988 | 39319 ft | 529 kts | 73° |
| 2026-04-26 14:57 | 70.73611 | -16.89669 | 39324 ft | 529 kts | 73° |
| 2026-04-26 14:58 | 70.75726 | -16.68381 | 39332 ft | 530 kts | 73° |
| 2026-04-26 14:58 | 70.77817 | -16.47037 | 39330 ft | 528 kts | 73° |
| 2026-04-26 14:59 | 70.79887 | -16.25609 | 39368 ft | 529 kts | 74° |
| 2026-04-26 14:59 | 70.81930 | -16.04161 | 39354 ft | 529 kts | 74° |
| 2026-04-26 15:00 | 70.83949 | -15.82650 | 39370 ft | 530 kts | 74° |
| 2026-04-26 15:00 | 70.85944 | -15.61089 | 39347 ft | 530 kts | 73° |
| 2026-04-26 15:01 | 70.87901 | -15.39628 | 39365 ft | 531 kts | 74° |
| 2026-04-26 15:01 | 70.89864 | -15.17782 | 39364 ft | 531 kts | 75° |
| 2026-04-26 15:02 | 70.91773 | -14.96216 | 39326 ft | 531 kts | 75° |
| 2026-04-26 15:02 | 70.93673 | -14.74407 | 39358 ft | 530 kts | 75° |
| 2026-04-26 15:03 | 70.95553 | -14.52510 | 39358 ft | 532 kts | 75° |
| 2026-04-26 15:03 | 70.97401 | -14.30629 | 39380 ft | 532 kts | 75° |
| 2026-04-26 15:04 | 70.99228 | -14.08655 | 39374 ft | 532 kts | 76° |
| 2026-04-26 15:04 | 71.00551 | -13.86346 | 39346 ft | 532 kts | 83° |
| 2026-04-26 15:05 | 71.01408 | -13.63946 | 39375 ft | 532 kts | 83° |
| 2026-04-26 15:05 | 71.02250 | -13.41415 | 39350 ft | 532 kts | 83° |
| 2026-04-26 15:06 | 71.03067 | -13.18895 | 39360 ft | 532 kts | 84° |
| 2026-04-26 15:06 | 71.03861 | -12.96288 | 39358 ft | 532 kts | 84° |
| 2026-04-26 15:07 | 71.05001 | -12.62452 | 39345 ft | 531 kts | 84° |
| 2026-04-26 15:07 | 71.05727 | -12.39915 | 39346 ft | 530 kts | 84° |
| 2026-04-26 15:08 | 71.06425 | -12.17395 | 39337 ft | 531 kts | 84° |
| 2026-04-26 15:08 | 71.07096 | -11.94873 | 39362 ft | 530 kts | 84° |
| 2026-04-26 15:09 | 71.07740 | -11.72359 | 39353 ft | 531 kts | 84° |
| 2026-04-26 15:09 | 71.08361 | -11.49695 | 39357 ft | 530 kts | 84° |
| 2026-04-26 15:10 | 71.08852 | -11.30981 | 39362 ft | 531 kts | 85° |
| 2026-04-26 15:10 | 71.09517 | -11.04472 | 39351 ft | 530 kts | 85° |
| 2026-04-26 15:11 | 71.10053 | -10.81935 | 39358 ft | 530 kts | 85° |
| 2026-04-26 15:11 | 71.10562 | -10.59308 | 39352 ft | 530 kts | 85° |
| 2026-04-26 15:12 | 71.11044 | -10.36689 | 39341 ft | 529 kts | 85° |
| 2026-04-26 15:12 | 71.11500 | -10.14002 | 39346 ft | 529 kts | 86° |
| 2026-04-26 15:13 | 71.11930 | -9.91251 | 39353 ft | 528 kts | 86° |
| 2026-04-26 15:13 | 71.12331 | -9.68616 | 39332 ft | 529 kts | 86° |
| 2026-04-26 15:14 | 71.12702 | -9.46041 | 39355 ft | 528 kts | 86° |
| 2026-04-26 15:14 | 71.13048 | -9.23359 | 39335 ft | 529 kts | 87° |
| 2026-04-26 15:15 | 71.13366 | -9.00707 | 39344 ft | 528 kts | 86° |
| 2026-04-26 15:15 | 71.13656 | -8.78058 | 39334 ft | 528 kts | 87° |
| 2026-04-26 15:16 | 71.13918 | -8.55462 | 39341 ft | 528 kts | 86° |
| 2026-04-26 15:16 | 71.14154 | -8.32798 | 39345 ft | 528 kts | 88° |
| 2026-04-26 15:17 | 71.14330 | -8.13860 | 39338 ft | 528 kts | 88° |
| 2026-04-26 15:17 | 71.14544 | -7.87370 | 39357 ft | 528 kts | 87° |
| 2026-04-26 15:18 | 71.14697 | -7.64802 | 39332 ft | 528 kts | 88° |
| 2026-04-26 15:18 | 71.14822 | -7.42535 | 39335 ft | 527 kts | 88° |
| 2026-04-26 15:19 | 71.14920 | -7.19942 | 39325 ft | 528 kts | 88° |
| 2026-04-26 15:19 | 71.14992 | -6.97296 | 39333 ft | 527 kts | 89° |
| 2026-04-26 15:20 | 71.15037 | -6.74672 | 39319 ft | 527 kts | 88° |
| 2026-04-26 15:20 | 71.15054 | -6.52067 | 39325 ft | 527 kts | 88° |
| 2026-04-26 15:21 | 71.15044 | -6.29463 | 39316 ft | 527 kts | 89° |
| 2026-04-26 15:21 | 71.15007 | -6.06765 | 39334 ft | 527 kts | 89° |
| 2026-04-26 15:22 | 71.14942 | -5.84084 | 39315 ft | 527 kts | 89° |
| 2026-04-26 15:22 | 71.14851 | -5.61556 | 39312 ft | 527 kts | 89° |
| 2026-04-26 15:23 | 71.14731 | -5.38803 | 39320 ft | 527 kts | 89° |
| 2026-04-26 15:23 | 71.14585 | -5.16320 | 39326 ft | 527 kts | 90° |
| 2026-04-26 15:24 | 71.14411 | -4.93666 | 39325 ft | 527 kts | 90° |
| 2026-04-26 15:24 | 71.14211 | -4.71171 | 39325 ft | 527 kts | 90° |
| 2026-04-26 15:25 | 71.14023 | -4.52312 | 39301 ft | 527 kts | 90° |
| 2026-04-26 15:25 | 71.13728 | -4.26006 | 39306 ft | 527 kts | 91° |
| 2026-04-26 15:26 | 71.13446 | -4.03437 | 39299 ft | 528 kts | 91° |
| 2026-04-26 15:26 | 71.13136 | -3.80806 | 39331 ft | 528 kts | 91° |
| 2026-04-26 15:27 | 71.12797 | -3.58055 | 39307 ft | 528 kts | 91° |
| 2026-04-26 15:27 | 71.12431 | -3.35371 | 39298 ft | 528 kts | 91° |
| 2026-04-26 15:28 | 71.12036 | -3.12660 | 39313 ft | 527 kts | 92° |
| 2026-04-26 15:28 | 71.11618 | -2.90148 | 39291 ft | 527 kts | 92° |
| 2026-04-26 15:29 | 71.11173 | -2.67634 | 39295 ft | 527 kts | 92° |
| 2026-04-26 15:30 | 71.10201 | -2.22593 | 39293 ft | 528 kts | 93° |
| 2026-04-26 15:30 | 71.09671 | -1.99974 | 39301 ft | 528 kts | 93° |
| 2026-04-26 15:31 | 71.08826 | -1.66101 | 39303 ft | 528 kts | 92° |
| 2026-04-26 15:32 | 71.08025 | -1.36103 | 39300 ft | 528 kts | 93° |
| 2026-04-26 15:32 | 71.07287 | -1.09941 | 39296 ft | 528 kts | 94° |
| 2026-04-26 15:33 | 71.06620 | -0.87349 | 39298 ft | 528 kts | 94° |
| 2026-04-26 15:33 | 71.05926 | -0.64771 | 39288 ft | 528 kts | 94° |
| 2026-04-26 15:34 | 71.05210 | -0.42401 | 39292 ft | 527 kts | 94° |
| 2026-04-26 15:34 | 71.04469 | -0.20089 | 39281 ft | 527 kts | 95° |
| 2026-04-26 15:35 | 71.03698 | 0.02296 | 39281 ft | 527 kts | 95° |
| 2026-04-26 15:35 | 71.02897 | 0.24750 | 39279 ft | 527 kts | 95° |
| 2026-04-26 15:36 | 71.02073 | 0.47083 | 39284 ft | 528 kts | 94° |
| 2026-04-26 15:36 | 71.01216 | 0.69559 | 39276 ft | 529 kts | 95° |
| 2026-04-26 15:37 | 71.00337 | 0.91873 | 39288 ft | 529 kts | 95° |
| 2026-04-26 15:37 | 70.99844 | 1.14376 | 39278 ft | 527 kts | 89° |
| 2026-04-26 15:38 | 70.99635 | 1.36712 | 39270 ft | 526 kts | 89° |
| 2026-04-26 15:38 | 70.99393 | 1.59220 | 39271 ft | 525 kts | 89° |
| 2026-04-26 15:39 | 70.99123 | 1.81509 | 39269 ft | 525 kts | 90° |
| 2026-04-26 15:39 | 70.98878 | 2.00091 | 39259 ft | 525 kts | 90° |
| 2026-04-26 15:40 | 70.98502 | 2.26069 | 39247 ft | 526 kts | 90° |
| 2026-04-26 15:40 | 70.98148 | 2.48450 | 39244 ft | 526 kts | 90° |
| 2026-04-26 15:41 | 70.97766 | 2.70795 | 39237 ft | 525 kts | 91° |
| 2026-04-26 15:41 | 70.97359 | 2.93054 | 39233 ft | 524 kts | 91° |
| 2026-04-26 15:42 | 70.96923 | 3.15373 | 39233 ft | 525 kts | 91° |
| 2026-04-26 15:42 | 70.96461 | 3.37659 | 39240 ft | 523 kts | 91° |
| 2026-04-26 15:43 | 70.95973 | 3.59885 | 39238 ft | 523 kts | 91° |
| 2026-04-26 15:44 | 70.95193 | 3.93131 | 39213 ft | 522 kts | 92° |
| 2026-04-26 15:44 | 70.94353 | 4.26325 | 39217 ft | 521 kts | 92° |
| 2026-04-26 15:45 | 70.93457 | 4.59424 | 39216 ft | 520 kts | 91° |
| 2026-04-26 15:46 | 70.92502 | 4.92458 | 39199 ft | 520 kts | 92° |
| 2026-04-26 15:46 | 70.91950 | 5.10649 | 39201 ft | 520 kts | 93° |
| 2026-04-26 15:47 | 70.90781 | 5.47383 | 39194 ft | 519 kts | 93° |
| 2026-04-26 15:48 | 70.90050 | 5.69252 | 39185 ft | 519 kts | 94° |
| 2026-04-26 15:48 | 70.89294 | 5.91056 | 39184 ft | 518 kts | 94° |
| 2026-04-26 15:49 | 70.88512 | 6.12857 | 39178 ft | 518 kts | 94° |
| 2026-04-26 15:49 | 70.87708 | 6.34575 | 39166 ft | 517 kts | 94° |
| 2026-04-26 15:50 | 70.86875 | 6.56334 | 39164 ft | 517 kts | 94° |
| 2026-04-26 15:50 | 70.86018 | 6.78037 | 39166 ft | 517 kts | 95° |
| 2026-04-26 15:51 | 70.85136 | 6.99725 | 39162 ft | 517 kts | 95° |
| 2026-04-26 15:51 | 70.84225 | 7.21460 | 39162 ft | 517 kts | 95° |
| 2026-04-26 15:52 | 70.83293 | 7.43083 | 39159 ft | 517 kts | 95° |
| 2026-04-26 15:52 | 70.82331 | 7.64795 | 39155 ft | 518 kts | 95° |
| 2026-04-26 15:53 | 70.81344 | 7.86466 | 39156 ft | 518 kts | 96° |
| 2026-04-26 15:53 | 70.80330 | 8.08145 | 39166 ft | 518 kts | 96° |
| 2026-04-26 15:54 | 70.79289 | 8.29819 | 39150 ft | 518 kts | 96° |
| 2026-04-26 15:54 | 70.78227 | 8.51391 | 39148 ft | 517 kts | 96° |
| 2026-04-26 15:55 | 70.77148 | 8.72794 | 39136 ft | 517 kts | 97° |
| 2026-04-26 15:55 | 70.76041 | 8.94211 | 39137 ft | 516 kts | 97° |
| 2026-04-26 15:56 | 70.74904 | 9.15707 | 39140 ft | 516 kts | 97° |
| 2026-04-26 15:56 | 70.73745 | 9.37118 | 39133 ft | 516 kts | 97° |
| 2026-04-26 15:57 | 70.72555 | 9.58601 | 39125 ft | 517 kts | 97° |
| 2026-04-26 15:57 | 70.71345 | 9.79984 | 39122 ft | 517 kts | 98° |
| 2026-04-26 15:58 | 70.70110 | 10.01351 | 39120 ft | 517 kts | 98° |
| 2026-04-26 15:58 | 70.68842 | 10.22796 | 39116 ft | 518 kts | 98° |
| 2026-04-26 15:59 | 70.67564 | 10.43990 | 39112 ft | 517 kts | 98° |
| 2026-04-26 15:59 | 70.66245 | 10.65408 | 39102 ft | 516 kts | 99° |
| 2026-04-26 16:00 | 70.64917 | 10.86548 | 39099 ft | 516 kts | 99° |
| 2026-04-26 16:00 | 70.63552 | 11.07862 | 39097 ft | 516 kts | 99° |
| 2026-04-26 16:01 | 70.62175 | 11.28942 | 39099 ft | 516 kts | 98° |
| 2026-04-26 16:01 | 70.60758 | 11.50231 | 39095 ft | 516 kts | 99° |
| 2026-04-26 16:02 | 70.59329 | 11.71305 | 39096 ft | 516 kts | 99° |
| 2026-04-26 16:02 | 70.57882 | 11.92263 | 39091 ft | 516 kts | 99° |
| 2026-04-26 16:03 | 70.56399 | 12.13345 | 39097 ft | 516 kts | 99° |
| 2026-04-26 16:03 | 70.54896 | 12.34348 | 39093 ft | 516 kts | 99° |
| 2026-04-26 16:04 | 70.53368 | 12.55326 | 39093 ft | 516 kts | 99° |
| 2026-04-26 16:04 | 70.51814 | 12.76292 | 39095 ft | 515 kts | 101° |
| 2026-04-26 16:05 | 70.50237 | 12.97206 | 39094 ft | 515 kts | 101° |
| 2026-04-26 16:05 | 70.48651 | 13.17900 | 39087 ft | 515 kts | 101° |
| 2026-04-26 16:06 | 70.47022 | 13.38814 | 39078 ft | 516 kts | 101° |
| 2026-04-26 16:06 | 70.45376 | 13.59605 | 39075 ft | 515 kts | 101° |
| 2026-04-26 16:07 | 70.43710 | 13.80300 | 39070 ft | 515 kts | 101° |
| 2026-04-26 16:07 | 70.42012 | 14.01077 | 39068 ft | 515 kts | 101° |
| 2026-04-26 16:08 | 70.40294 | 14.21773 | 39070 ft | 514 kts | 101° |
| 2026-04-26 16:08 | 70.38561 | 14.42326 | 39066 ft | 514 kts | 101° |
| 2026-04-26 16:09 | 70.36793 | 14.62991 | 39062 ft | 513 kts | 101° |
| 2026-04-26 16:09 | 70.35015 | 14.83460 | 39058 ft | 513 kts | 102° |
| 2026-04-26 16:10 | 70.33213 | 15.03904 | 39051 ft | 514 kts | 102° |
| 2026-04-26 16:10 | 70.31379 | 15.24403 | 39050 ft | 514 kts | 102° |
| 2026-04-26 16:11 | 70.29532 | 15.44757 | 39049 ft | 513 kts | 102° |
| 2026-04-26 16:11 | 70.27664 | 15.65049 | 39048 ft | 513 kts | 103° |
| 2026-04-26 16:12 | 70.25764 | 15.85407 | 39046 ft | 512 kts | 103° |
| 2026-04-26 16:12 | 70.22886 | 16.15722 | 39043 ft | 512 kts | 103° |
| 2026-04-26 16:13 | 70.21407 | 16.36296 | 39041 ft | 508 kts | 92° |
| 2026-04-26 16:13 | 70.20966 | 16.57085 | 39038 ft | 507 kts | 90° |
| 2026-04-26 16:14 | 70.20534 | 16.77652 | 39035 ft | 507 kts | 91° |
| 2026-04-26 16:15 | 70.19830 | 17.08784 | 39032 ft | 507 kts | 91° |
| 2026-04-26 16:15 | 70.19328 | 17.29584 | 39028 ft | 508 kts | 91° |
| 2026-04-26 16:16 | 70.18530 | 17.60685 | 38843 ft | 510 kts | 91° |
| 2026-04-26 16:16 | 70.18250 | 17.71136 | 38240 ft | 510 kts | 92° |
| 2026-04-26 16:16 | 70.17969 | 17.81340 | 37633 ft | 505 kts | 92° |
| 2026-04-26 16:17 | 70.17677 | 17.91735 | 37021 ft | 501 kts | 92° |
| 2026-04-26 16:17 | 70.17388 | 18.01811 | 36321 ft | 500 kts | 92° |
| 2026-04-26 16:17 | 70.17090 | 18.12012 | 35674 ft | 497 kts | 92° |
| 2026-04-26 16:17 | 70.16787 | 18.22161 | 34997 ft | 495 kts | 92° |
| 2026-04-26 16:18 | 70.16480 | 18.32251 | 34347 ft | 495 kts | 92° |
| 2026-04-26 16:18 | 70.15848 | 18.52471 | 33069 ft | 495 kts | 92° |
| 2026-04-26 16:19 | 70.15203 | 18.72405 | 31720 ft | 495 kts | 93° |
| 2026-04-26 16:19 | 70.14919 | 18.82327 | 31170 ft | 489 kts | 90° |
| 2026-04-26 16:19 | 70.14680 | 18.98835 | 30186 ft | 480 kts | 90° |
| 2026-04-26 16:20 | 70.14485 | 19.11819 | 29256 ft | 472 kts | 90° |
| 2026-04-26 16:20 | 70.14184 | 19.30621 | 27683 ft | 448 kts | 90° |
| 2026-04-26 16:20 | 70.14032 | 19.39631 | 26903 ft | 437 kts | 90° |
| 2026-04-26 16:21 | 70.13879 | 19.48424 | 26174 ft | 423 kts | 90° |
| 2026-04-26 16:21 | 70.13728 | 19.56836 | 25830 ft | 412 kts | 90° |
| 2026-04-26 16:21 | 70.13573 | 19.65360 | 25782 ft | 410 kts | 91° |
| 2026-04-26 16:21 | 70.13422 | 19.73306 | 25338 ft | 403 kts | 91° |
| 2026-04-26 16:22 | 70.13264 | 19.81582 | 24496 ft | 404 kts | 91° |
| 2026-04-26 16:22 | 70.13101 | 19.89785 | 23697 ft | 403 kts | 91° |
| 2026-04-26 16:22 | 70.12935 | 19.98032 | 22840 ft | 403 kts | 92° |
| 2026-04-26 16:22 | 70.12768 | 20.06113 | 22117 ft | 399 kts | 90° |
| 2026-04-26 16:23 | 70.12595 | 20.14213 | 21440 ft | 393 kts | 91° |
| 2026-04-26 16:23 | 70.12421 | 20.22241 | 20760 ft | 388 kts | 90° |
| 2026-04-26 16:23 | 70.12247 | 20.30134 | 20035 ft | 385 kts | 91° |
| 2026-04-26 16:23 | 70.12070 | 20.37883 | 19327 ft | 381 kts | 90° |
| 2026-04-26 16:24 | 70.11893 | 20.45591 | 18610 ft | 377 kts | 90° |
| 2026-04-26 16:24 | 70.11713 | 20.53266 | 17971 ft | 372 kts | 91° |
| 2026-04-26 16:24 | 70.11535 | 20.60705 | 17478 ft | 364 kts | 91° |
| 2026-04-26 16:24 | 70.11355 | 20.68149 | 16975 ft | 365 kts | 91° |
| 2026-04-26 16:25 | 70.11173 | 20.75581 | 16474 ft | 365 kts | 92° |
| 2026-04-26 16:25 | 70.10988 | 20.82997 | 15994 ft | 362 kts | 91° |
| 2026-04-26 16:25 | 70.10802 | 20.90279 | 15522 ft | 360 kts | 91° |
| 2026-04-26 16:25 | 70.10614 | 20.97495 | 15055 ft | 354 kts | 92° |
| 2026-04-26 16:26 | 70.10423 | 21.04674 | 14656 ft | 347 kts | 92° |
| 2026-04-26 16:26 | 70.10299 | 21.09334 | 14397 ft | 347 kts | 92° |
| 2026-04-26 16:26 | 70.10045 | 21.18696 | 13732 ft | 339 kts | 92° |
| 2026-04-26 16:26 | 70.09857 | 21.25490 | 13262 ft | 333 kts | 92° |
| 2026-04-26 16:27 | 70.09669 | 21.32220 | 12837 ft | 327 kts | 92° |
| 2026-04-26 16:27 | 70.09480 | 21.38839 | 12400 ft | 323 kts | 92° |
| 2026-04-26 16:27 | 70.09290 | 21.45372 | 11981 ft | 317 kts | 91° |
| 2026-04-26 16:27 | 70.09106 | 21.51738 | 11572 ft | 312 kts | 91° |
| 2026-04-26 16:28 | 70.08921 | 21.58025 | 11163 ft | 307 kts | 91° |
| 2026-04-26 16:28 | 70.08735 | 21.64264 | 10753 ft | 303 kts | 91° |
| 2026-04-26 16:28 | 70.08556 | 21.70222 | 10369 ft | 298 kts | 92° |
| 2026-04-26 16:28 | 70.08385 | 21.75824 | 9994 ft | 295 kts | 92° |
| 2026-04-26 16:29 | 70.08212 | 21.81438 | 9624 ft | 291 kts | 92° |
| 2026-04-26 16:29 | 70.08030 | 21.87273 | 9227 ft | 287 kts | 92° |
| 2026-04-26 16:29 | 70.07851 | 21.93012 | 8839 ft | 284 kts | 91° |
| 2026-04-26 16:29 | 70.07666 | 21.98791 | 8468 ft | 280 kts | 91° |
| 2026-04-26 16:30 | 70.07487 | 22.04420 | 8074 ft | 277 kts | 91° |
| 2026-04-26 16:30 | 70.07305 | 22.09963 | 7701 ft | 272 kts | 92° |
| 2026-04-26 16:30 | 70.07124 | 22.15432 | 7341 ft | 269 kts | 91° |
| 2026-04-26 16:30 | 70.06944 | 22.20847 | 6974 ft | 266 kts | 90° |
| 2026-04-26 16:31 | 70.06781 | 22.25748 | 6632 ft | 263 kts | 91° |
| 2026-04-26 16:31 | 70.06598 | 22.31178 | 7069 ft | 285 kts | 91° |
| 2026-04-26 16:31 | 70.06408 | 22.36739 | 8994 ft | 276 kts | 91° |
| 2026-04-26 16:31 | 70.06231 | 22.41791 | 11047 ft | 256 kts | 91° |
| 2026-04-26 16:32 | 70.06062 | 22.46704 | 12672 ft | 250 kts | 91° |
| 2026-04-26 16:32 | 70.05948 | 22.49986 | 13635 ft | 249 kts | 90° |
| 2026-04-26 16:32 | 70.05585 | 22.56728 | 15107 ft | 268 kts | 108° |
| 2026-04-26 16:32 | 70.04422 | 22.61186 | 16094 ft | 285 kts | 143° |
| 2026-04-26 16:33 | 70.02726 | 22.63063 | 17198 ft | 287 kts | 177° |
| 2026-04-26 16:33 | 70.00872 | 22.61933 | 18560 ft | 274 kts | 212° |
| 2026-04-26 16:33 | 69.99526 | 22.58207 | 19415 ft | 272 kts | 246° |
| 2026-04-26 16:33 | 69.99120 | 22.53025 | 20247 ft | 267 kts | 279° |
| 2026-04-26 16:34 | 69.99438 | 22.47736 | 21177 ft | 270 kts | 285° |
| 2026-04-26 16:34 | 69.99803 | 22.42275 | 22118 ft | 275 kts | 284° |
| 2026-04-26 16:34 | 70.00136 | 22.36724 | 23030 ft | 280 kts | 283° |
| 2026-04-26 16:34 | 70.00435 | 22.31074 | 23918 ft | 285 kts | 282° |
| 2026-04-26 16:35 | 70.00696 | 22.25347 | 24791 ft | 290 kts | 280° |
| 2026-04-26 16:35 | 70.01045 | 22.19578 | 25573 ft | 289 kts | 295° |
| 2026-04-26 16:35 | 70.02139 | 22.15053 | 26252 ft | 284 kts | 324° |
| 2026-04-26 16:35 | 70.03922 | 22.12877 | 26883 ft | 284 kts | 355° |
| 2026-04-26 16:36 | 70.05788 | 22.13783 | 27400 ft | 291 kts | 24° |
| 2026-04-26 16:36 | 70.07284 | 22.17504 | 27898 ft | 303 kts | 53° |
| 2026-04-26 16:36 | 70.07993 | 22.23331 | 28386 ft | 318 kts | 82° |
| 2026-04-26 16:36 | 70.07712 | 22.29849 | 28863 ft | 329 kts | 100° |
| 2026-04-26 16:37 | 70.07169 | 22.36332 | 29303 ft | 335 kts | 99° |
| 2026-04-26 16:37 | 70.06660 | 22.43082 | 29659 ft | 342 kts | 97° |
| 2026-04-26 16:37 | 70.06208 | 22.49919 | 29786 ft | 344 kts | 96° |
| 2026-04-26 16:37 | 70.05872 | 22.54548 | 29812 ft | 344 kts | 104° |
| 2026-04-26 16:38 | 70.04243 | 22.62436 | 29855 ft | 348 kts | 135° |
| 2026-04-26 16:38 | 70.02225 | 22.66196 | 29858 ft | 351 kts | 161° |
| 2026-04-26 16:38 | 70.00078 | 22.67337 | 29844 ft | 350 kts | 183° |
| 2026-04-26 16:38 | 69.97777 | 22.65919 | 29829 ft | 344 kts | 208° |
| 2026-04-26 16:39 | 69.95860 | 22.61977 | 29839 ft | 337 kts | 232° |
| 2026-04-26 16:39 | 69.94647 | 22.56245 | 29836 ft | 329 kts | 255° |